Lucas, Ohio
Current Conditions -  °F | °C
As of 10:52 AM on Tuesday 21 Oct 2014 (Local Time) from KMFD Reporting Station
Overcast Overcast  
Wind Chill: 43°   Ceiling: 600
Heat Index: 48°   Visibility: 10mi
Dew Point: 46°   Wind: 13mph
Humidity: 93%   Direction: 320°NW
Pressure: 29.95"   Gusts: NA
Location:  40.71°N, 82.42°W
Report Text: KMFD 211452Z 32011KT 10SM BKN006 OVC011 09/08 A2995 RMK AO2 CIG 005V010 SLP145 60000 T00890078 51015
Loading
Personal Weather Stations






























Interactive Weather Map
Tropical Storm Tracking
New forecast layout! Learn more

10-Day Weather Forecast

Advertisements
Track Severe Weather on mobile